sensor_id;sensor_type;location;lat;lon;timestamp;P1;durP1;ratioP1;P2;durP2;ratioP2
16270;SDS011;8243;49.048;8.396;2023-07-20T00:00:45;3.10;;;1.90;;
16270;SDS011;8243;49.048;8.396;2023-07-20T00:03:11;5.20;;;2.00;;
16270;SDS011;8243;49.048;8.396;2023-07-20T00:05:41;3.07;;;2.20;;
16270;SDS011;8243;49.048;8.396;2023-07-20T00:08:10;3.47;;;2.20;;
16270;SDS011;8243;49.048;8.396;2023-07-20T00:10:36;4.83;;;2.10;;
16270;SDS011;8243;49.048;8.396;2023-07-20T00:13:01;6.17;;;2.07;;
16270;SDS011;8243;49.048;8.396;2023-07-20T00:15:27;6.20;;;2.27;;
16270;SDS011;8243;49.048;8.396;2023-07-20T00:17:53;3.97;;;2.37;;
16270;SDS011;8243;49.048;8.396;2023-07-20T00:20:18;3.73;;;2.20;;
16270;SDS011;8243;49.048;8.396;2023-07-20T00:22:44;4.10;;;2.37;;
16270;SDS011;8243;49.048;8.396;2023-07-20T00:25:09;2.57;;;2.00;;
16270;SDS011;8243;49.048;8.396;2023-07-20T00:27:36;3.07;;;2.20;;
16270;SDS011;8243;49.048;8.396;2023-07-20T00:30:03;2.73;;;1.97;;
16270;SDS011;8243;49.048;8.396;2023-07-20T00:32:29;3.00;;;2.20;;
16270;SDS011;8243;49.048;8.396;2023-07-20T00:34:55;3.97;;;2.10;;
16270;SDS011;8243;49.048;8.396;2023-07-20T00:37:20;3.10;;;2.17;;
16270;SDS011;8243;49.048;8.396;2023-07-20T00:39:46;2.70;;;2.00;;
16270;SDS011;8243;49.048;8.396;2023-07-20T00:42:11;3.30;;;2.13;;
16270;SDS011;8243;49.048;8.396;2023-07-20T00:44:37;3.17;;;2.10;;
16270;SDS011;8243;49.048;8.396;2023-07-20T00:47:03;3.33;;;1.80;;
16270;SDS011;8243;49.048;8.396;2023-07-20T00:49:29;2.73;;;1.87;;
16270;SDS011;8243;49.048;8.396;2023-07-20T00:51:55;3.90;;;2.30;;
16270;SDS011;8243;49.048;8.396;2023-07-20T00:54:21;4.40;;;2.30;;
16270;SDS011;8243;49.048;8.396;2023-07-20T00:56:46;4.70;;;2.20;;
16270;SDS011;8243;49.048;8.396;2023-07-20T00:59:12;2.30;;;2.10;;
16270;SDS011;8243;49.048;8.396;2023-07-20T01:01:38;2.23;;;1.90;;
16270;SDS011;8243;49.048;8.396;2023-07-20T01:04:04;3.30;;;2.10;;
16270;SDS011;8243;49.048;8.396;2023-07-20T01:06:37;3.57;;;2.60;;
16270;SDS011;8243;49.048;8.396;2023-07-20T01:09:16;3.70;;;2.27;;
16270;SDS011;8243;49.048;8.396;2023-07-20T01:11:49;2.43;;;2.23;;
16270;SDS011;8243;49.048;8.396;2023-07-20T01:14:23;2.93;;;2.53;;
16270;SDS011;8243;49.048;8.396;2023-07-20T01:16:50;5.97;;;2.37;;
16270;SDS011;8243;49.048;8.396;2023-07-20T01:19:17;3.63;;;2.70;;
16270;SDS011;8243;49.048;8.396;2023-07-20T01:24:31;3.20;;;2.77;;
16270;SDS011;8243;49.048;8.396;2023-07-20T01:32:50;6.67;;;3.03;;
16270;SDS011;8243;49.048;8.396;2023-07-20T01:35:19;4.27;;;3.70;;
16270;SDS011;8243;49.048;8.396;2023-07-20T01:37:48;3.07;;;2.80;;
16270;SDS011;8243;49.048;8.396;2023-07-20T01:40:16;7.07;;;2.97;;
16270;SDS011;8243;49.048;8.396;2023-07-20T01:42:43;5.73;;;3.40;;
16270;SDS011;8243;49.048;8.396;2023-07-20T01:45:12;3.30;;;3.10;;
16270;SDS011;8243;49.048;8.396;2023-07-20T01:47:38;4.63;;;4.23;;
16270;SDS011;8243;49.048;8.396;2023-07-20T01:50:03;5.57;;;4.90;;
16270;SDS011;8243;49.048;8.396;2023-07-20T01:52:29;4.97;;;4.57;;
16270;SDS011;8243;49.048;8.396;2023-07-20T01:54:55;5.30;;;4.20;;
16270;SDS011;8243;49.048;8.396;2023-07-20T01:57:20;4.73;;;3.73;;
16270;SDS011;8243;49.048;8.396;2023-07-20T01:59:46;5.60;;;4.47;;
16270;SDS011;8243;49.048;8.396;2023-07-20T02:02:12;4.57;;;4.07;;
16270;SDS011;8243;49.048;8.396;2023-07-20T02:04:37;4.03;;;3.63;;
16270;SDS011;8243;49.048;8.396;2023-07-20T02:07:03;4.53;;;4.07;;
16270;SDS011;8243;49.048;8.396;2023-07-20T02:09:28;4.20;;;3.90;;
16270;SDS011;8243;49.048;8.396;2023-07-20T02:11:54;4.30;;;3.83;;
16270;SDS011;8243;49.048;8.396;2023-07-20T02:14:20;4.63;;;3.73;;
16270;SDS011;8243;49.048;8.396;2023-07-20T02:16:47;6.97;;;3.53;;
16270;SDS011;8243;49.048;8.396;2023-07-20T02:19:17;4.00;;;3.63;;
16270;SDS011;8243;49.048;8.396;2023-07-20T02:21:43;4.60;;;4.30;;
16270;SDS011;8243;49.048;8.396;2023-07-20T02:24:09;4.50;;;4.10;;
16270;SDS011;8243;49.048;8.396;2023-07-20T02:26:34;4.90;;;4.50;;
16270;SDS011;8243;49.048;8.396;2023-07-20T02:29:00;5.70;;;5.13;;
16270;SDS011;8243;49.048;8.396;2023-07-20T02:31:25;5.27;;;4.80;;
16270;SDS011;8243;49.048;8.396;2023-07-20T02:33:51;6.63;;;5.23;;
16270;SDS011;8243;49.048;8.396;2023-07-20T02:36:16;5.93;;;5.07;;
16270;SDS011;8243;49.048;8.396;2023-07-20T02:38:42;5.53;;;5.03;;
16270;SDS011;8243;49.048;8.396;2023-07-20T02:41:08;5.27;;;4.87;;
16270;SDS011;8243;49.048;8.396;2023-07-20T02:43:33;4.87;;;4.37;;
16270;SDS011;8243;49.048;8.396;2023-07-20T02:45:59;3.77;;;3.47;;
16270;SDS011;8243;49.048;8.396;2023-07-20T02:48:24;5.40;;;3.27;;
16270;SDS011;8243;49.048;8.396;2023-07-20T02:50:50;5.50;;;3.67;;
16270;SDS011;8243;49.048;8.396;2023-07-20T02:53:15;3.60;;;3.00;;
16270;SDS011;8243;49.048;8.396;2023-07-20T02:55:41;3.63;;;3.20;;
16270;SDS011;8243;49.048;8.396;2023-07-20T02:58:06;3.60;;;3.07;;
16270;SDS011;8243;49.048;8.396;2023-07-20T03:00:32;3.30;;;2.90;;
16270;SDS011;8243;49.048;8.396;2023-07-20T03:02:58;4.00;;;3.43;;
16270;SDS011;8243;49.048;8.396;2023-07-20T03:05:23;3.10;;;2.80;;
16270;SDS011;8243;49.048;8.396;2023-07-20T03:07:50;4.07;;;3.67;;
16270;SDS011;8243;49.048;8.396;2023-07-20T03:10:16;3.90;;;3.50;;
16270;SDS011;8243;49.048;8.396;2023-07-20T03:12:41;9.27;;;3.80;;
16270;SDS011;8243;49.048;8.396;2023-07-20T03:15:07;5.17;;;3.90;;
16270;SDS011;8243;49.048;8.396;2023-07-20T03:17:33;4.00;;;3.60;;
16270;SDS011;8243;49.048;8.396;2023-07-20T03:19:59;3.27;;;2.97;;
16270;SDS011;8243;49.048;8.396;2023-07-20T03:22:25;4.80;;;3.40;;
16270;SDS011;8243;49.048;8.396;2023-07-20T03:24:51;2.77;;;2.57;;
16270;SDS011;8243;49.048;8.396;2023-07-20T03:27:17;3.50;;;3.20;;
16270;SDS011;8243;49.048;8.396;2023-07-20T03:29:43;5.17;;;2.83;;
16270;SDS011;8243;49.048;8.396;2023-07-20T03:32:09;4.87;;;2.87;;
16270;SDS011;8243;49.048;8.396;2023-07-20T03:34:35;6.03;;;3.30;;
16270;SDS011;8243;49.048;8.396;2023-07-20T03:37:01;10.10;;;3.37;;
16270;SDS011;8243;49.048;8.396;2023-07-20T03:39:30;6.27;;;3.20;;
16270;SDS011;8243;49.048;8.396;2023-07-20T03:41:55;5.33;;;3.70;;
16270;SDS011;8243;49.048;8.396;2023-07-20T03:44:22;4.13;;;3.07;;
16270;SDS011;8243;49.048;8.396;2023-07-20T03:46:48;4.13;;;3.20;;
16270;SDS011;8243;49.048;8.396;2023-07-20T03:49:13;5.37;;;3.30;;
16270;SDS011;8243;49.048;8.396;2023-07-20T03:51:39;4.60;;;3.17;;
16270;SDS011;8243;49.048;8.396;2023-07-20T03:54:04;5.83;;;3.60;;
16270;SDS011;8243;49.048;8.396;2023-07-20T03:56:30;4.77;;;3.47;;
16270;SDS011;8243;49.048;8.396;2023-07-20T03:58:59;6.13;;;3.40;;
16270;SDS011;8243;49.048;8.396;2023-07-20T04:01:24;4.57;;;3.27;;
16270;SDS011;8243;49.048;8.396;2023-07-20T04:03:50;3.77;;;3.07;;
16270;SDS011;8243;49.048;8.396;2023-07-20T04:06:16;4.73;;;3.03;;
16270;SDS011;8243;49.048;8.396;2023-07-20T04:08:42;4.50;;;3.10;;
16270;SDS011;8243;49.048;8.396;2023-07-20T04:11:09;3.53;;;3.03;;
16270;SDS011;8243;49.048;8.396;2023-07-20T04:13:34;4.30;;;3.20;;
16270;SDS011;8243;49.048;8.396;2023-07-20T04:16:00;3.50;;;3.20;;
16270;SDS011;8243;49.048;8.396;2023-07-20T04:18:25;3.10;;;2.80;;
16270;SDS011;8243;49.048;8.396;2023-07-20T04:20:51;5.43;;;3.43;;
16270;SDS011;8243;49.048;8.396;2023-07-20T04:23:16;6.67;;;3.47;;
16270;SDS011;8243;49.048;8.396;2023-07-20T04:25:42;4.23;;;2.70;;
16270;SDS011;8243;49.048;8.396;2023-07-20T04:28:08;4.77;;;3.43;;
16270;SDS011;8243;49.048;8.396;2023-07-20T04:30:35;5.30;;;3.10;;
16270;SDS011;8243;49.048;8.396;2023-07-20T04:33:01;6.40;;;3.30;;
16270;SDS011;8243;49.048;8.396;2023-07-20T04:38:13;6.20;;;3.60;;
16270;SDS011;8243;49.048;8.396;2023-07-20T04:40:40;4.10;;;3.17;;
16270;SDS011;8243;49.048;8.396;2023-07-20T04:43:06;4.77;;;3.20;;
16270;SDS011;8243;49.048;8.396;2023-07-20T04:45:32;3.77;;;2.87;;
16270;SDS011;8243;49.048;8.396;2023-07-20T04:47:57;4.57;;;3.23;;
16270;SDS011;8243;49.048;8.396;2023-07-20T04:50:23;4.47;;;2.73;;
16270;SDS011;8243;49.048;8.396;2023-07-20T04:52:50;3.33;;;3.03;;
16270;SDS011;8243;49.048;8.396;2023-07-20T04:55:15;8.73;;;3.47;;
16270;SDS011;8243;49.048;8.396;2023-07-20T04:57:41;4.03;;;2.97;;
16270;SDS011;8243;49.048;8.396;2023-07-20T05:00:07;4.37;;;3.30;;
16270;SDS011;8243;49.048;8.396;2023-07-20T05:02:35;4.63;;;3.87;;
16270;SDS011;8243;49.048;8.396;2023-07-20T05:05:01;3.90;;;2.90;;
16270;SDS011;8243;49.048;8.396;2023-07-20T05:07:26;6.00;;;2.90;;
16270;SDS011;8243;49.048;8.396;2023-07-20T05:09:52;4.50;;;2.80;;
16270;SDS011;8243;49.048;8.396;2023-07-20T05:12:18;4.00;;;2.87;;
16270;SDS011;8243;49.048;8.396;2023-07-20T05:14:43;3.43;;;2.80;;
16270;SDS011;8243;49.048;8.396;2023-07-20T05:17:09;5.17;;;2.83;;
16270;SDS011;8243;49.048;8.396;2023-07-20T05:19:35;4.33;;;2.70;;
16270;SDS011;8243;49.048;8.396;2023-07-20T05:22:00;4.50;;;3.00;;
16270;SDS011;8243;49.048;8.396;2023-07-20T05:24:26;5.37;;;3.17;;
16270;SDS011;8243;49.048;8.396;2023-07-20T05:26:51;6.50;;;3.10;;
16270;SDS011;8243;49.048;8.396;2023-07-20T05:29:17;4.53;;;2.70;;
16270;SDS011;8243;49.048;8.396;2023-07-20T05:31:42;7.63;;;3.20;;
16270;SDS011;8243;49.048;8.396;2023-07-20T05:34:08;4.60;;;2.70;;
16270;SDS011;8243;49.048;8.396;2023-07-20T05:36:34;4.60;;;3.10;;
16270;SDS011;8243;49.048;8.396;2023-07-20T05:38:59;5.40;;;3.00;;
16270;SDS011;8243;49.048;8.396;2023-07-20T05:41:25;3.53;;;2.67;;
16270;SDS011;8243;49.048;8.396;2023-07-20T05:43:50;3.17;;;2.73;;
16270;SDS011;8243;49.048;8.396;2023-07-20T05:46:16;3.80;;;2.70;;
16270;SDS011;8243;49.048;8.396;2023-07-20T05:48:42;5.97;;;3.10;;
16270;SDS011;8243;49.048;8.396;2023-07-20T05:51:07;3.50;;;2.70;;
16270;SDS011;8243;49.048;8.396;2023-07-20T05:53:33;5.17;;;2.53;;
16270;SDS011;8243;49.048;8.396;2023-07-20T05:55:59;4.30;;;2.73;;
16270;SDS011;8243;49.048;8.396;2023-07-20T05:58:25;6.63;;;2.90;;
16270;SDS011;8243;49.048;8.396;2023-07-20T06:00:51;5.13;;;3.10;;
16270;SDS011;8243;49.048;8.396;2023-07-20T06:03:18;3.37;;;2.77;;
16270;SDS011;8243;49.048;8.396;2023-07-20T06:05:46;4.20;;;2.67;;
16270;SDS011;8243;49.048;8.396;2023-07-20T06:08:19;5.60;;;2.83;;
16270;SDS011;8243;49.048;8.396;2023-07-20T06:10:44;4.97;;;2.87;;
16270;SDS011;8243;49.048;8.396;2023-07-20T06:13:16;4.77;;;3.00;;
16270;SDS011;8243;49.048;8.396;2023-07-20T06:15:41;5.40;;;2.60;;
16270;SDS011;8243;49.048;8.396;2023-07-20T06:18:07;4.40;;;3.00;;
16270;SDS011;8243;49.048;8.396;2023-07-20T06:20:32;5.70;;;3.00;;
16270;SDS011;8243;49.048;8.396;2023-07-20T06:22:58;6.37;;;3.40;;
16270;SDS011;8243;49.048;8.396;2023-07-20T06:25:23;4.43;;;2.80;;
16270;SDS011;8243;49.048;8.396;2023-07-20T06:27:49;3.13;;;2.60;;
16270;SDS011;8243;49.048;8.396;2023-07-20T06:30:18;2.77;;;2.57;;
16270;SDS011;8243;49.048;8.396;2023-07-20T06:32:44;4.57;;;2.73;;
16270;SDS011;8243;49.048;8.396;2023-07-20T06:35:10;5.17;;;3.00;;
16270;SDS011;8243;49.048;8.396;2023-07-20T06:37:36;7.37;;;2.60;;
16270;SDS011;8243;49.048;8.396;2023-07-20T06:40:02;3.83;;;2.70;;
16270;SDS011;8243;49.048;8.396;2023-07-20T06:42:31;3.57;;;2.50;;
16270;SDS011;8243;49.048;8.396;2023-07-20T06:44:57;7.33;;;2.80;;
16270;SDS011;8243;49.048;8.396;2023-07-20T06:47:23;5.53;;;2.77;;
16270;SDS011;8243;49.048;8.396;2023-07-20T06:49:49;4.10;;;2.77;;
16270;SDS011;8243;49.048;8.396;2023-07-20T06:52:15;3.43;;;2.60;;
16270;SDS011;8243;49.048;8.396;2023-07-20T06:54:40;7.37;;;2.80;;
16270;SDS011;8243;49.048;8.396;2023-07-20T06:57:06;3.83;;;2.60;;
16270;SDS011;8243;49.048;8.396;2023-07-20T06:59:31;4.97;;;2.80;;
16270;SDS011;8243;49.048;8.396;2023-07-20T07:01:57;4.63;;;3.07;;
16270;SDS011;8243;49.048;8.396;2023-07-20T07:04:22;5.27;;;2.70;;
16270;SDS011;8243;49.048;8.396;2023-07-20T07:06:48;4.30;;;2.83;;
16270;SDS011;8243;49.048;8.396;2023-07-20T07:09:14;5.67;;;2.97;;
16270;SDS011;8243;49.048;8.396;2023-07-20T07:11:39;4.27;;;2.60;;
16270;SDS011;8243;49.048;8.396;2023-07-20T07:14:05;3.27;;;2.80;;
16270;SDS011;8243;49.048;8.396;2023-07-20T07:16:30;6.60;;;2.80;;
16270;SDS011;8243;49.048;8.396;2023-07-20T07:18:56;3.27;;;2.80;;
16270;SDS011;8243;49.048;8.396;2023-07-20T07:21:21;5.27;;;2.70;;
16270;SDS011;8243;49.048;8.396;2023-07-20T07:23:47;5.73;;;2.60;;
16270;SDS011;8243;49.048;8.396;2023-07-20T07:26:13;2.97;;;2.60;;
16270;SDS011;8243;49.048;8.396;2023-07-20T07:28:38;5.83;;;2.77;;
16270;SDS011;8243;49.048;8.396;2023-07-20T07:31:04;3.50;;;2.63;;
16270;SDS011;8243;49.048;8.396;2023-07-20T07:33:31;7.80;;;2.90;;
16270;SDS011;8243;49.048;8.396;2023-07-20T07:35:57;7.17;;;2.27;;
16270;SDS011;8243;49.048;8.396;2023-07-20T07:38:22;4.70;;;2.30;;
16270;SDS011;8243;49.048;8.396;2023-07-20T07:40:57;5.77;;;2.47;;
16270;SDS011;8243;49.048;8.396;2023-07-20T07:43:23;3.43;;;2.30;;
16270;SDS011;8243;49.048;8.396;2023-07-20T07:45:53;3.03;;;2.40;;
16270;SDS011;8243;49.048;8.396;2023-07-20T07:48:20;2.43;;;2.07;;
16270;SDS011;8243;49.048;8.396;2023-07-20T07:50:47;4.07;;;2.23;;
16270;SDS011;8243;49.048;8.396;2023-07-20T07:53:12;4.37;;;2.17;;
16270;SDS011;8243;49.048;8.396;2023-07-20T07:55:38;6.80;;;2.13;;
16270;SDS011;8243;49.048;8.396;2023-07-20T07:58:04;2.37;;;1.90;;
16270;SDS011;8243;49.048;8.396;2023-07-20T08:00:32;7.57;;;2.00;;
16270;SDS011;8243;49.048;8.396;2023-07-20T08:02:58;4.07;;;2.40;;
16270;SDS011;8243;49.048;8.396;2023-07-20T08:05:23;3.00;;;2.20;;
16270;SDS011;8243;49.048;8.396;2023-07-20T08:07:49;3.17;;;1.80;;
16270;SDS011;8243;49.048;8.396;2023-07-20T08:10:14;5.77;;;2.53;;
16270;SDS011;8243;49.048;8.396;2023-07-20T08:12:40;2.97;;;2.10;;
16270;SDS011;8243;49.048;8.396;2023-07-20T08:15:06;4.63;;;2.80;;
16270;SDS011;8243;49.048;8.396;2023-07-20T08:17:32;3.50;;;2.47;;
16270;SDS011;8243;49.048;8.396;2023-07-20T08:19:57;5.33;;;3.10;;
16270;SDS011;8243;49.048;8.396;2023-07-20T08:22:23;4.17;;;1.97;;
16270;SDS011;8243;49.048;8.396;2023-07-20T08:24:48;4.73;;;2.20;;
16270;SDS011;8243;49.048;8.396;2023-07-20T08:27:14;2.90;;;1.97;;
16270;SDS011;8243;49.048;8.396;2023-07-20T08:29:39;6.83;;;2.10;;
16270;SDS011;8243;49.048;8.396;2023-07-20T08:32:05;1.90;;;1.70;;
16270;SDS011;8243;49.048;8.396;2023-07-20T08:34:31;4.37;;;2.00;;
16270;SDS011;8243;49.048;8.396;2023-07-20T08:37:00;3.63;;;2.10;;
16270;SDS011;8243;49.048;8.396;2023-07-20T08:39:25;2.50;;;2.13;;
16270;SDS011;8243;49.048;8.396;2023-07-20T08:41:51;5.13;;;2.00;;
16270;SDS011;8243;49.048;8.396;2023-07-20T08:44:16;4.97;;;1.90;;
16270;SDS011;8243;49.048;8.396;2023-07-20T08:46:42;5.47;;;2.10;;
16270;SDS011;8243;49.048;8.396;2023-07-20T08:49:09;4.00;;;2.00;;
16270;SDS011;8243;49.048;8.396;2023-07-20T08:51:36;2.63;;;1.93;;
16270;SDS011;8243;49.048;8.396;2023-07-20T08:54:03;2.60;;;1.83;;
16270;SDS011;8243;49.048;8.396;2023-07-20T08:56:29;2.03;;;1.67;;
16270;SDS011;8243;49.048;8.396;2023-07-20T08:58:57;3.43;;;2.27;;
16270;SDS011;8243;49.048;8.396;2023-07-20T09:01:24;2.70;;;1.80;;
16270;SDS011;8243;49.048;8.396;2023-07-20T09:03:51;3.00;;;2.00;;
16270;SDS011;8243;49.048;8.396;2023-07-20T09:06:17;4.27;;;1.80;;
16270;SDS011;8243;49.048;8.396;2023-07-20T09:08:42;4.33;;;2.00;;
16270;SDS011;8243;49.048;8.396;2023-07-20T09:11:11;2.90;;;1.90;;
16270;SDS011;8243;49.048;8.396;2023-07-20T09:13:38;4.37;;;1.80;;
16270;SDS011;8243;49.048;8.396;2023-07-20T09:16:04;2.23;;;1.70;;
16270;SDS011;8243;49.048;8.396;2023-07-20T09:18:30;4.50;;;1.60;;
16270;SDS011;8243;49.048;8.396;2023-07-20T09:21:04;2.90;;;1.80;;
16270;SDS011;8243;49.048;8.396;2023-07-20T09:23:34;2.60;;;2.00;;
16270;SDS011;8243;49.048;8.396;2023-07-20T09:26:14;2.67;;;1.60;;
16270;SDS011;8243;49.048;8.396;2023-07-20T09:28:44;5.00;;;1.93;;
16270;SDS011;8243;49.048;8.396;2023-07-20T09:31:19;2.87;;;1.70;;
16270;SDS011;8243;49.048;8.396;2023-07-20T09:33:46;3.13;;;1.60;;
16270;SDS011;8243;49.048;8.396;2023-07-20T09:36:13;5.40;;;1.93;;
16270;SDS011;8243;49.048;8.396;2023-07-20T09:38:42;5.03;;;1.80;;
16270;SDS011;8243;49.048;8.396;2023-07-20T09:41:14;3.17;;;1.90;;
16270;SDS011;8243;49.048;8.396;2023-07-20T09:43:43;2.40;;;2.00;;
16270;SDS011;8243;49.048;8.396;2023-07-20T09:46:10;4.53;;;1.60;;
16270;SDS011;8243;49.048;8.396;2023-07-20T09:48:36;3.07;;;1.60;;
16270;SDS011;8243;49.048;8.396;2023-07-20T09:51:01;2.17;;;1.70;;
16270;SDS011;8243;49.048;8.396;2023-07-20T09:53:28;3.67;;;1.60;;
16270;SDS011;8243;49.048;8.396;2023-07-20T09:55:54;4.30;;;1.87;;
16270;SDS011;8243;49.048;8.396;2023-07-20T09:58:21;1.90;;;1.50;;
16270;SDS011;8243;49.048;8.396;2023-07-20T10:00:48;1.83;;;1.53;;
16270;SDS011;8243;49.048;8.396;2023-07-20T10:03:21;2.97;;;1.67;;
16270;SDS011;8243;49.048;8.396;2023-07-20T10:05:52;6.20;;;1.90;;
16270;SDS011;8243;49.048;8.396;2023-07-20T10:08:23;2.83;;;1.90;;
16270;SDS011;8243;49.048;8.396;2023-07-20T10:10:50;3.83;;;1.60;;
16270;SDS011;8243;49.048;8.396;2023-07-20T10:13:25;2.60;;;1.80;;
16270;SDS011;8243;49.048;8.396;2023-07-20T10:15:54;2.83;;;1.83;;
16270;SDS011;8243;49.048;8.396;2023-07-20T10:18:29;3.23;;;1.60;;
16270;SDS011;8243;49.048;8.396;2023-07-20T10:20:59;4.03;;;1.60;;
16270;SDS011;8243;49.048;8.396;2023-07-20T10:23:29;1.90;;;1.50;;
16270;SDS011;8243;49.048;8.396;2023-07-20T10:25:55;4.33;;;1.63;;
16270;SDS011;8243;49.048;8.396;2023-07-20T10:28:22;3.40;;;1.70;;
16270;SDS011;8243;49.048;8.396;2023-07-20T10:30:49;3.77;;;1.97;;
16270;SDS011;8243;49.048;8.396;2023-07-20T10:33:15;4.73;;;1.80;;
16270;SDS011;8243;49.048;8.396;2023-07-20T10:35:52;2.10;;;1.80;;
16270;SDS011;8243;49.048;8.396;2023-07-20T10:38:19;3.87;;;1.83;;
16270;SDS011;8243;49.048;8.396;2023-07-20T10:40:53;7.77;;;1.77;;
16270;SDS011;8243;49.048;8.396;2023-07-20T10:43:20;2.23;;;1.80;;
16270;SDS011;8243;49.048;8.396;2023-07-20T10:45:49;1.93;;;1.50;;
16270;SDS011;8243;49.048;8.396;2023-07-20T10:48:19;3.13;;;1.67;;
16270;SDS011;8243;49.048;8.396;2023-07-20T10:51:08;2.40;;;1.70;;
16270;SDS011;8243;49.048;8.396;2023-07-20T10:53:40;4.43;;;1.70;;
16270;SDS011;8243;49.048;8.396;2023-07-20T10:56:20;3.47;;;1.53;;
16270;SDS011;8243;49.048;8.396;2023-07-20T10:58:46;6.10;;;1.67;;
16270;SDS011;8243;49.048;8.396;2023-07-20T11:01:13;2.17;;;1.87;;
16270;SDS011;8243;49.048;8.396;2023-07-20T11:03:40;2.33;;;1.57;;
16270;SDS011;8243;49.048;8.396;2023-07-20T11:08:56;2.03;;;1.70;;
16270;SDS011;8243;49.048;8.396;2023-07-20T11:11:30;1.90;;;1.80;;
16270;SDS011;8243;49.048;8.396;2023-07-20T11:13:57;2.07;;;1.70;;
16270;SDS011;8243;49.048;8.396;2023-07-20T11:16:44;3.37;;;1.70;;
16270;SDS011;8243;49.048;8.396;2023-07-20T11:19:18;4.00;;;1.87;;
16270;SDS011;8243;49.048;8.396;2023-07-20T11:21:46;2.53;;;1.93;;
16270;SDS011;8243;49.048;8.396;2023-07-20T11:24:14;3.27;;;1.80;;
16270;SDS011;8243;49.048;8.396;2023-07-20T11:26:43;2.30;;;1.60;;
16270;SDS011;8243;49.048;8.396;2023-07-20T11:29:13;2.23;;;1.73;;
16270;SDS011;8243;49.048;8.396;2023-07-20T11:31:41;1.90;;;1.67;;
16270;SDS011;8243;49.048;8.396;2023-07-20T11:34:10;1.70;;;1.60;;
16270;SDS011;8243;49.048;8.396;2023-07-20T11:36:38;2.13;;;1.83;;
16270;SDS011;8243;49.048;8.396;2023-07-20T11:39:08;1.50;;;1.40;;
16270;SDS011;8243;49.048;8.396;2023-07-20T11:41:34;2.23;;;1.70;;
16270;SDS011;8243;49.048;8.396;2023-07-20T11:44:00;2.70;;;1.80;;
16270;SDS011;8243;49.048;8.396;2023-07-20T11:46:27;2.60;;;1.60;;
16270;SDS011;8243;49.048;8.396;2023-07-20T11:48:57;3.27;;;1.50;;
16270;SDS011;8243;49.048;8.396;2023-07-20T11:51:29;4.27;;;1.70;;
16270;SDS011;8243;49.048;8.396;2023-07-20T11:53:56;2.03;;;1.73;;
16270;SDS011;8243;49.048;8.396;2023-07-20T11:56:22;2.30;;;1.67;;
16270;SDS011;8243;49.048;8.396;2023-07-20T11:58:49;1.67;;;1.57;;
16270;SDS011;8243;49.048;8.396;2023-07-20T12:01:15;2.37;;;1.60;;
16270;SDS011;8243;49.048;8.396;2023-07-20T12:03:42;1.50;;;1.40;;
16270;SDS011;8243;49.048;8.396;2023-07-20T12:06:09;2.00;;;1.67;;
16270;SDS011;8243;49.048;8.396;2023-07-20T12:08:37;2.33;;;1.33;;
16270;SDS011;8243;49.048;8.396;2023-07-20T12:11:04;1.50;;;1.40;;
16270;SDS011;8243;49.048;8.396;2023-07-20T12:13:37;2.10;;;1.60;;
16270;SDS011;8243;49.048;8.396;2023-07-20T12:16:13;1.87;;;1.63;;
16270;SDS011;8243;49.048;8.396;2023-07-20T12:18:41;3.40;;;1.60;;
16270;SDS011;8243;49.048;8.396;2023-07-20T12:21:07;1.63;;;1.40;;
16270;SDS011;8243;49.048;8.396;2023-07-20T12:23:40;2.37;;;1.63;;
16270;SDS011;8243;49.048;8.396;2023-07-20T12:26:07;1.57;;;1.47;;
16270;SDS011;8243;49.048;8.396;2023-07-20T12:28:38;2.83;;;1.63;;
16270;SDS011;8243;49.048;8.396;2023-07-20T12:31:05;4.20;;;1.63;;
16270;SDS011;8243;49.048;8.396;2023-07-20T12:33:32;3.27;;;1.50;;
16270;SDS011;8243;49.048;8.396;2023-07-20T12:35:57;1.90;;;1.70;;
16270;SDS011;8243;49.048;8.396;2023-07-20T12:38:26;2.60;;;1.67;;
16270;SDS011;8243;49.048;8.396;2023-07-20T12:40:52;1.40;;;1.30;;
16270;SDS011;8243;49.048;8.396;2023-07-20T12:43:21;3.83;;;1.37;;
16270;SDS011;8243;49.048;8.396;2023-07-20T12:45:47;1.37;;;1.27;;
16270;SDS011;8243;49.048;8.396;2023-07-20T12:48:13;2.20;;;1.50;;
16270;SDS011;8243;49.048;8.396;2023-07-20T12:50:38;1.57;;;1.43;;
16270;SDS011;8243;49.048;8.396;2023-07-20T12:53:04;1.80;;;1.20;;
16270;SDS011;8243;49.048;8.396;2023-07-20T12:55:30;1.90;;;1.30;;
16270;SDS011;8243;49.048;8.396;2023-07-20T12:57:56;2.00;;;1.40;;
16270;SDS011;8243;49.048;8.396;2023-07-20T13:00:22;2.77;;;1.53;;
16270;SDS011;8243;49.048;8.396;2023-07-20T13:02:48;1.57;;;1.47;;
16270;SDS011;8243;49.048;8.396;2023-07-20T13:05:17;1.67;;;1.53;;
16270;SDS011;8243;49.048;8.396;2023-07-20T13:07:42;1.50;;;1.40;;
16270;SDS011;8243;49.048;8.396;2023-07-20T13:10:08;1.47;;;1.20;;
16270;SDS011;8243;49.048;8.396;2023-07-20T13:12:35;1.47;;;1.37;;
16270;SDS011;8243;49.048;8.396;2023-07-20T13:15:02;1.73;;;1.20;;
16270;SDS011;8243;49.048;8.396;2023-07-20T13:17:30;1.77;;;1.40;;
16270;SDS011;8243;49.048;8.396;2023-07-20T13:20:00;1.37;;;1.20;;
16270;SDS011;8243;49.048;8.396;2023-07-20T13:22:25;1.60;;;1.50;;
16270;SDS011;8243;49.048;8.396;2023-07-20T13:24:52;1.73;;;1.50;;
16270;SDS011;8243;49.048;8.396;2023-07-20T13:27:17;2.33;;;1.83;;
16270;SDS011;8243;49.048;8.396;2023-07-20T13:29:44;1.93;;;1.50;;
16270;SDS011;8243;49.048;8.396;2023-07-20T13:32:10;1.40;;;1.30;;
16270;SDS011;8243;49.048;8.396;2023-07-20T13:34:38;1.30;;;1.20;;
16270;SDS011;8243;49.048;8.396;2023-07-20T13:37:03;1.60;;;1.50;;
16270;SDS011;8243;49.048;8.396;2023-07-20T13:39:29;1.40;;;1.30;;
16270;SDS011;8243;49.048;8.396;2023-07-20T13:41:55;1.47;;;1.13;;
16270;SDS011;8243;49.048;8.396;2023-07-20T13:44:20;2.07;;;1.53;;
16270;SDS011;8243;49.048;8.396;2023-07-20T13:46:47;1.30;;;1.30;;
16270;SDS011;8243;49.048;8.396;2023-07-20T13:49:13;1.73;;;1.27;;
16270;SDS011;8243;49.048;8.396;2023-07-20T13:51:39;1.70;;;1.60;;
16270;SDS011;8243;49.048;8.396;2023-07-20T13:54:05;2.67;;;1.23;;
16270;SDS011;8243;49.048;8.396;2023-07-20T13:56:31;1.40;;;1.30;;
16270;SDS011;8243;49.048;8.396;2023-07-20T13:58:56;1.63;;;1.50;;
16270;SDS011;8243;49.048;8.396;2023-07-20T14:01:22;3.67;;;1.70;;
16270;SDS011;8243;49.048;8.396;2023-07-20T14:03:49;2.30;;;1.23;;
16270;SDS011;8243;49.048;8.396;2023-07-20T14:06:16;1.43;;;1.33;;
16270;SDS011;8243;49.048;8.396;2023-07-20T14:08:42;1.43;;;1.33;;
16270;SDS011;8243;49.048;8.396;2023-07-20T14:11:11;1.27;;;1.10;;
16270;SDS011;8243;49.048;8.396;2023-07-20T14:13:37;2.53;;;1.57;;
16270;SDS011;8243;49.048;8.396;2023-07-20T14:16:03;1.67;;;1.20;;
16270;SDS011;8243;49.048;8.396;2023-07-20T14:18:29;1.37;;;1.13;;
16270;SDS011;8243;49.048;8.396;2023-07-20T14:20:54;1.70;;;1.40;;
16270;SDS011;8243;49.048;8.396;2023-07-20T14:23:20;1.50;;;1.23;;
16270;SDS011;8243;49.048;8.396;2023-07-20T14:25:45;1.40;;;1.30;;
16270;SDS011;8243;49.048;8.396;2023-07-20T14:28:11;1.30;;;1.20;;
16270;SDS011;8243;49.048;8.396;2023-07-20T14:30:37;1.40;;;1.30;;
16270;SDS011;8243;49.048;8.396;2023-07-20T14:33:03;2.30;;;1.53;;
16270;SDS011;8243;49.048;8.396;2023-07-20T14:35:28;2.33;;;1.20;;
16270;SDS011;8243;49.048;8.396;2023-07-20T14:37:54;1.50;;;1.40;;
16270;SDS011;8243;49.048;8.396;2023-07-20T14:40:19;1.50;;;1.40;;
16270;SDS011;8243;49.048;8.396;2023-07-20T14:42:45;3.47;;;1.57;;
16270;SDS011;8243;49.048;8.396;2023-07-20T14:45:11;2.50;;;1.40;;
16270;SDS011;8243;49.048;8.396;2023-07-20T14:47:37;1.80;;;1.40;;
16270;SDS011;8243;49.048;8.396;2023-07-20T14:50:02;2.33;;;1.40;;
16270;SDS011;8243;49.048;8.396;2023-07-20T14:52:31;2.30;;;1.30;;
16270;SDS011;8243;49.048;8.396;2023-07-20T14:55:01;1.63;;;1.40;;
16270;SDS011;8243;49.048;8.396;2023-07-20T14:57:26;1.40;;;1.30;;
16270;SDS011;8243;49.048;8.396;2023-07-20T14:59:52;2.80;;;1.60;;
16270;SDS011;8243;49.048;8.396;2023-07-20T15:02:18;1.47;;;1.20;;
16270;SDS011;8243;49.048;8.396;2023-07-20T15:04:53;1.40;;;1.30;;
16270;SDS011;8243;49.048;8.396;2023-07-20T15:07:32;1.30;;;1.20;;
16270;SDS011;8243;49.048;8.396;2023-07-20T15:09:58;2.97;;;1.50;;
16270;SDS011;8243;49.048;8.396;2023-07-20T15:12:23;1.57;;;1.47;;